createdAt,value
2019-04-14T00:01:59.264Z,4.60
2019-04-14T00:04:33.844Z,4.50
2019-04-14T00:07:05.743Z,4.50
2019-04-14T00:09:36.431Z,4.50
2019-04-14T00:12:08.985Z,4.40
2019-04-14T00:14:42.863Z,4.40
2019-04-14T00:17:13.496Z,4.40
2019-04-14T00:19:44.037Z,4.40
2019-04-14T00:22:14.595Z,4.40
2019-04-14T00:24:45.008Z,4.40
2019-04-14T00:27:15.504Z,4.40
2019-04-14T00:29:46.138Z,4.40
2019-04-14T00:32:16.864Z,4.30
2019-04-14T00:35:06.348Z,4.40
2019-04-14T00:37:58.287Z,4.40
2019-04-14T00:40:34.676Z,4.40
2019-04-14T00:43:15.675Z,4.40
2019-04-14T00:45:58.185Z,4.40
2019-04-14T00:48:29.882Z,4.40
2019-04-14T00:51:02.674Z,4.30
2019-04-14T00:53:33.905Z,4.30
2019-04-14T00:56:04.582Z,4.30
2019-04-14T00:58:35.038Z,4.20
2019-04-14T01:01:06.927Z,4.20
2019-04-14T01:03:37.468Z,4.20
2019-04-14T01:06:07.963Z,4.10
2019-04-14T01:08:38.803Z,4.20
2019-04-14T01:11:09.591Z,4.10
2019-04-14T01:13:41.832Z,4.10
2019-04-14T01:16:17.613Z,4.10
2019-04-14T01:18:45.089Z,4.10
2019-04-14T01:21:15.772Z,4.10
2019-04-14T01:23:46.230Z,4.00
2019-04-14T01:26:16.627Z,4.00
2019-04-14T01:28:48.311Z,4.00
2019-04-14T01:31:18.848Z,4.00
2019-04-14T01:33:49.309Z,3.90
2019-04-14T01:36:21.216Z,3.90
2019-04-14T01:38:53.632Z,3.90
2019-04-14T01:41:24.102Z,3.90
2019-04-14T01:43:55.972Z,3.80
2019-04-14T01:46:30.813Z,3.80
2019-04-14T01:49:00.677Z,3.70
2019-04-14T01:51:44.240Z,3.70
2019-04-14T01:54:29.930Z,3.70
2019-04-14T01:57:19.997Z,3.60
2019-04-14T01:59:50.734Z,3.40
2019-04-14T02:02:24.800Z,3.40
2019-04-14T02:04:55.445Z,3.40
2019-04-14T02:07:26.009Z,3.40
2019-04-14T02:09:57.571Z,3.30
2019-04-14T02:12:28.379Z,3.30
2019-04-14T02:14:58.942Z,3.10
2019-04-14T02:17:30.709Z,3.10
2019-04-14T02:20:01.396Z,3.10
2019-04-14T02:22:33.465Z,3.00
2019-04-14T02:25:05.573Z,3.00
2019-04-14T02:27:36.435Z,3.10
2019-04-14T02:30:10.158Z,3.00
2019-04-14T02:33:05.370Z,3.00
2019-04-14T02:35:45.165Z,2.90
2019-04-14T02:38:29.122Z,2.90
2019-04-14T02:40:50.835Z,2.90
2019-04-14T02:45:52.083Z,2.80
2019-04-14T02:48:36.057Z,2.70
2019-04-14T02:50:53.426Z,2.70
2019-04-14T02:53:23.832Z,2.80
2019-04-14T02:56:05.167Z,2.80
2019-04-14T03:03:41.623Z,2.70
2019-04-14T03:06:07.106Z,2.80
2019-04-14T03:08:44.872Z,2.80
2019-04-14T03:11:09.676Z,2.80
2019-04-14T03:13:45.632Z,2.80
2019-04-14T03:19:06.655Z,3.00
2019-04-14T03:22:02.955Z,2.90
2019-04-14T03:24:37.556Z,2.90
2019-04-14T03:27:38.073Z,2.90
2019-04-14T03:33:05.281Z,2.80
2019-04-14T03:37:50.337Z,2.80
2019-04-14T03:40:23.717Z,2.90
2019-04-14T03:43:05.840Z,2.90
2019-04-14T03:45:37.816Z,2.80
2019-04-14T03:48:31.523Z,2.90
2019-04-14T03:50:29.130Z,2.90
2019-04-14T03:53:09.629Z,3.00
2019-04-14T03:55:20.295Z,2.90
2019-04-14T03:57:41.182Z,3.00
2019-04-14T04:00:11.804Z,3.00
2019-04-14T04:02:42.363Z,3.00
2019-04-14T04:05:12.982Z,3.00
2019-04-14T04:07:43.588Z,3.00
2019-04-14T04:10:17.985Z,3.00
2019-04-14T04:12:48.728Z,3.00
2019-04-14T04:15:19.359Z,3.00
2019-04-14T04:17:55.868Z,3.00
2019-04-14T04:20:45.645Z,3.00
2019-04-14T04:23:22.760Z,3.00
2019-04-14T04:26:06.083Z,2.90
2019-04-14T04:28:56.315Z,2.90
2019-04-14T04:31:37.440Z,2.90
2019-04-14T04:34:27.328Z,2.90
2019-04-14T04:37:06.059Z,3.00
2019-04-14T04:39:39.779Z,3.00
2019-04-14T04:42:11.352Z,3.00
2019-04-14T04:44:42.143Z,3.00
2019-04-14T04:47:12.787Z,3.00
2019-04-14T04:49:44.432Z,3.00
2019-04-14T04:52:15.782Z,3.10
2019-04-14T04:54:47.437Z,3.20
2019-04-14T04:57:18.042Z,3.20
2019-04-14T04:59:49.540Z,3.30
2019-04-14T05:02:20.261Z,3.30
2019-04-14T05:04:50.688Z,3.30
2019-04-14T05:07:23.135Z,3.40
2019-04-14T05:10:13.808Z,3.40
2019-04-14T05:12:48.158Z,3.50
2019-04-14T05:15:29.614Z,3.50
2019-04-14T05:18:00.469Z,3.60
2019-04-14T05:20:31.405Z,3.60
2019-04-14T05:23:01.927Z,3.70
2019-04-14T05:25:32.610Z,3.70
2019-04-14T05:28:03.092Z,3.80
2019-04-14T05:30:34.742Z,3.90
2019-04-14T05:33:07.469Z,3.90
2019-04-14T05:35:38.293Z,4.00
2019-04-14T05:38:08.996Z,4.00
2019-04-14T05:40:40.729Z,4.10
2019-04-14T05:43:11.467Z,4.20
2019-04-14T05:45:42.166Z,4.20
2019-04-14T05:48:13.853Z,4.30
2019-04-14T05:50:45.509Z,4.40
2019-04-14T05:53:17.476Z,4.50
2019-04-14T05:55:48.280Z,4.50
2019-04-14T05:58:18.895Z,4.60
2019-04-14T06:00:50.538Z,4.70
2019-04-14T06:03:21.773Z,4.70
2019-04-14T06:05:52.338Z,4.80
2019-04-14T06:08:22.926Z,4.80
2019-04-14T06:10:53.579Z,4.90
2019-04-14T06:13:24.038Z,5.00
2019-04-14T06:15:54.816Z,5.10
2019-04-14T06:18:25.344Z,5.20
2019-04-14T06:20:55.764Z,5.20
2019-04-14T06:23:26.381Z,5.30
2019-04-14T06:25:56.735Z,5.30
2019-04-14T06:28:27.268Z,5.40
2019-04-14T06:31:10.356Z,5.50
2019-04-14T06:33:46.976Z,5.60
2019-04-14T06:36:36.443Z,5.60
2019-04-14T06:39:11.446Z,5.70
2019-04-14T06:41:42.039Z,5.90
2019-04-14T06:44:12.560Z,5.90
2019-04-14T06:46:42.948Z,6.00
2019-04-14T06:49:13.336Z,6.10
2019-04-14T06:51:48.986Z,6.20
2019-04-14T06:54:19.392Z,6.30
2019-04-14T06:56:49.906Z,6.40
2019-04-14T06:59:20.355Z,6.50
2019-04-14T07:01:50.800Z,6.60
2019-04-14T07:04:21.337Z,6.70
2019-04-14T07:06:51.754Z,6.90
2019-04-14T07:09:22.265Z,7.00
2019-04-14T07:11:53.009Z,7.10
2019-04-14T07:14:23.605Z,7.20
2019-04-14T07:16:53.933Z,7.30
2019-04-14T07:19:25.351Z,7.30
2019-04-14T07:21:55.863Z,7.50
2019-04-14T07:24:26.294Z,7.60
2019-04-14T07:26:56.695Z,7.70
2019-04-14T07:29:29.833Z,7.80
2019-04-14T07:32:10.548Z,7.80
2019-04-14T07:34:51.149Z,7.80
2019-04-14T07:37:40.711Z,7.90
2019-04-14T07:40:30.448Z,8.10
2019-04-14T07:43:10.191Z,8.00
2019-04-14T07:45:59.738Z,8.00
2019-04-14T07:48:35.397Z,8.10
2019-04-14T07:51:19.445Z,8.20
2019-04-14T07:54:08.973Z,8.30
2019-04-14T07:56:58.459Z,8.20
2019-04-14T07:59:47.919Z,8.30
2019-04-14T08:02:37.432Z,8.30
2019-04-14T08:05:15.334Z,8.40
2019-04-14T08:07:48.701Z,8.60
2019-04-14T08:10:20.437Z,8.60
2019-04-14T08:12:50.868Z,8.60
2019-04-14T08:15:21.406Z,8.70
2019-04-14T08:17:55.181Z,8.80
2019-04-14T08:20:30.288Z,8.60
2019-04-14T08:23:01.152Z,8.80
2019-04-14T08:25:32.693Z,9.00
2019-04-14T08:28:03.119Z,9.20
2019-04-14T08:30:33.729Z,9.10
2019-04-14T08:33:04.254Z,9.00
2019-04-14T08:35:34.951Z,8.90
2019-04-14T08:38:05.570Z,8.80
2019-04-14T08:40:36.211Z,8.80
2019-04-14T08:43:23.385Z,8.70
2019-04-14T08:45:58.458Z,9.00
2019-04-14T08:48:48.055Z,9.30
2019-04-14T08:51:37.708Z,9.20
2019-04-14T08:54:29.719Z,9.00
2019-04-14T08:57:19.289Z,9.20
2019-04-14T08:59:59.079Z,9.30
2019-04-14T09:02:41.339Z,9.30
2019-04-14T09:05:20.526Z,9.20
2019-04-14T09:08:10.170Z,9.30
2019-04-14T09:10:44.147Z,9.20
2019-04-14T09:13:14.811Z,9.30
2019-04-14T09:15:45.497Z,9.60
2019-04-14T09:18:16.011Z,9.80
2019-04-14T09:20:52.642Z,10.00
2019-04-14T09:23:18.651Z,10.00
2019-04-14T09:25:49.139Z,9.80
2019-04-14T09:28:19.557Z,9.60
2019-04-14T09:30:49.952Z,9.50
2019-04-14T09:33:20.501Z,9.40
2019-04-14T09:35:50.955Z,9.60
2019-04-14T09:38:21.500Z,9.80
2019-04-14T09:40:51.949Z,10.10
2019-04-14T09:43:22.358Z,10.10
2019-04-14T09:45:52.820Z,10.10
2019-04-14T09:48:23.694Z,10.20
2019-04-14T09:51:04.175Z,10.20
2019-04-14T09:53:26.502Z,10.20
2019-04-14T09:55:56.969Z,10.10
2019-04-14T09:58:27.575Z,10.10
2019-04-14T10:00:58.352Z,9.70
2019-04-14T10:03:28.937Z,9.90
2019-04-14T10:05:59.541Z,9.80
2019-04-14T10:08:30.006Z,9.90
2019-04-14T10:11:00.439Z,9.80
2019-04-14T10:13:32.201Z,10.10
2019-04-14T10:16:02.731Z,10.50
2019-04-14T10:18:33.205Z,10.60
2019-04-14T10:21:03.631Z,10.20
2019-04-14T10:23:34.091Z,9.90
2019-04-14T10:26:06.475Z,10.10
2019-04-14T10:28:36.962Z,10.70
2019-04-14T10:31:07.482Z,11.00
2019-04-14T10:33:38.102Z,11.10
2019-04-14T10:36:08.691Z,10.90
2019-04-14T10:38:39.191Z,11.00
2019-04-14T10:41:09.834Z,11.10
2019-04-14T10:43:40.386Z,11.10
2019-04-14T10:46:10.871Z,11.20
2019-04-14T10:48:41.407Z,11.50
2019-04-14T10:51:11.882Z,11.50
2019-04-14T10:53:43.054Z,11.40
2019-04-14T10:56:13.709Z,11.30
2019-04-14T10:58:44.250Z,11.30
2019-04-14T11:01:14.960Z,11.10
2019-04-14T11:03:45.480Z,11.30
2019-04-14T11:06:28.177Z,11.50
2019-04-14T11:08:58.799Z,11.30
2019-04-14T11:11:29.284Z,11.40
2019-04-14T11:14:03.025Z,11.50
2019-04-14T11:16:33.568Z,11.40
2019-04-14T11:19:04.546Z,11.20
2019-04-14T11:21:42.404Z,11.30
2019-04-14T11:24:07.542Z,11.60
2019-04-14T11:26:38.190Z,12.20
2019-04-14T11:29:08.846Z,12.30
2019-04-14T11:31:53.023Z,12.10
2019-04-14T11:34:27.152Z,11.90
2019-04-14T11:37:13.116Z,12.20
2019-04-14T11:39:44.552Z,11.80
2019-04-14T11:42:15.271Z,12.30
2019-04-14T11:44:47.189Z,12.60
2019-04-14T11:47:17.891Z,12.60
2019-04-14T11:49:48.540Z,12.40
2019-04-14T11:52:19.315Z,12.40
2019-04-14T11:54:50.062Z,12.70
2019-04-14T11:57:21.047Z,12.70
2019-04-14T12:00:01.080Z,13.00
2019-04-14T12:02:50.912Z,13.30
2019-04-14T12:05:37.555Z,13.00
2019-04-14T12:08:15.911Z,13.20
2019-04-14T12:10:46.599Z,13.10
2019-04-14T12:13:17.233Z,13.20
2019-04-14T12:15:47.949Z,13.00
2019-04-14T12:18:18.589Z,13.10
2019-04-14T12:20:49.053Z,13.10
2019-04-14T12:23:20.140Z,13.30
2019-04-14T12:25:50.619Z,13.70
2019-04-14T12:28:21.932Z,14.00
2019-04-14T12:30:53.253Z,14.10
2019-04-14T12:33:23.900Z,14.50
2019-04-14T12:35:54.510Z,14.80
2019-04-14T12:38:25.098Z,15.00
2019-04-14T12:40:58.919Z,15.30
2019-04-14T12:43:38.711Z,15.40
2019-04-14T12:46:29.256Z,15.20
2019-04-14T12:49:08.623Z,15.80
2019-04-14T12:52:01.888Z,16.10
2019-04-14T12:54:32.842Z,16.30
2019-04-14T12:57:03.557Z,16.30
2019-04-14T12:59:37.373Z,16.20
2019-04-14T13:02:18.541Z,16.10
2019-04-14T13:04:55.264Z,15.60
2019-04-14T13:07:24.963Z,15.50
2019-04-14T13:09:55.611Z,15.60
2019-04-14T13:12:26.649Z,15.60
2019-04-14T13:14:57.632Z,15.50
2019-04-14T13:17:28.378Z,15.50
2019-04-14T13:19:58.973Z,15.60
2019-04-14T13:22:34.143Z,15.80
2019-04-14T13:25:01.856Z,16.00
2019-04-14T13:27:32.414Z,16.30
2019-04-14T13:30:03.389Z,16.40
2019-04-14T13:32:36.154Z,16.30
2019-04-14T13:35:07.902Z,16.00
2019-04-14T13:37:39.065Z,15.40
2019-04-14T13:40:11.896Z,14.90
2019-04-14T13:42:42.621Z,14.30
2019-04-14T13:45:13.989Z,13.90
2019-04-14T13:47:44.796Z,13.70
2019-04-14T13:50:15.559Z,13.60
2019-04-14T13:52:48.435Z,13.60
2019-04-14T13:55:19.178Z,14.00
2019-04-14T13:57:49.899Z,13.90
2019-04-14T14:00:21.353Z,13.60
2019-04-14T14:02:53.588Z,13.60
2019-04-14T14:05:24.107Z,13.90
2019-04-14T14:07:55.505Z,14.20
2019-04-14T14:10:26.084Z,14.00
2019-04-14T14:13:11.493Z,14.00
2019-04-14T14:15:54.797Z,14.10
2019-04-14T14:18:44.459Z,13.50
2019-04-14T14:21:34.022Z,13.10
2019-04-14T14:24:15.162Z,13.30
2019-04-14T14:26:46.751Z,13.40
2019-04-14T14:29:17.478Z,13.40
2019-04-14T14:31:48.509Z,13.60
2019-04-14T14:34:19.261Z,13.50
2019-04-14T14:36:49.958Z,13.50
2019-04-14T14:39:21.429Z,13.70
2019-04-14T14:41:52.064Z,13.70
2019-04-14T14:44:24.533Z,13.50
2019-04-14T14:47:04.788Z,13.10
2019-04-14T14:49:54.387Z,13.10
2019-04-14T14:52:25.516Z,13.10
2019-04-14T14:54:56.821Z,13.40
2019-04-14T14:57:27.566Z,13.70
2019-04-14T14:59:58.187Z,13.90
2019-04-14T15:02:28.955Z,13.80
2019-04-14T15:04:59.748Z,14.00
2019-04-14T15:07:30.568Z,13.70
2019-04-14T15:10:01.433Z,13.60
2019-04-14T15:12:32.368Z,13.50
2019-04-14T15:15:03.240Z,13.00
2019-04-14T15:17:34.463Z,13.10
2019-04-14T15:20:06.021Z,13.40
2019-04-14T15:22:36.869Z,13.80
2019-04-14T15:25:08.142Z,13.80
2019-04-14T15:27:39.057Z,14.50
2019-04-14T15:30:14.844Z,14.70
2019-04-14T15:32:46.665Z,14.80
2019-04-14T15:35:17.457Z,14.70
2019-04-14T15:37:49.933Z,14.10
2019-04-14T15:40:20.706Z,14.10
2019-04-14T15:42:51.290Z,14.30
2019-04-14T15:45:22.048Z,14.10
2019-04-14T15:47:52.737Z,13.50
2019-04-14T15:50:24.773Z,13.70
2019-04-14T15:52:55.376Z,13.50
2019-04-14T15:55:26.054Z,13.50
2019-04-14T15:58:15.868Z,13.40
2019-04-14T16:01:05.573Z,13.30
2019-04-14T16:03:40.848Z,13.40
2019-04-14T16:06:30.453Z,14.10
2019-04-14T16:09:08.571Z,14.10
2019-04-14T16:11:59.899Z,14.20
2019-04-14T16:14:49.871Z,13.90
2019-04-14T16:17:39.498Z,13.90
2019-04-14T16:20:14.050Z,13.80
2019-04-14T16:22:44.759Z,13.60
2019-04-14T16:25:15.660Z,13.30
2019-04-14T16:28:05.531Z,13.40
2019-04-14T16:30:55.338Z,13.10
2019-04-14T16:33:45.233Z,12.70
2019-04-14T16:36:15.859Z,12.60
2019-04-14T16:38:46.720Z,12.20
2019-04-14T16:41:20.074Z,11.60
2019-04-14T16:43:50.177Z,11.20
2019-04-14T16:46:21.095Z,10.90
2019-04-14T16:48:53.075Z,10.70
2019-04-14T16:51:30.248Z,10.60
2019-04-14T16:54:07.845Z,10.40
2019-04-14T16:56:53.959Z,10.30
2019-04-14T16:59:25.779Z,10.10
2019-04-14T17:01:56.603Z,10.00
2019-04-14T17:04:27.550Z,10.00
2019-04-14T17:06:58.590Z,9.90
2019-04-14T17:09:30.121Z,9.80
2019-04-14T17:12:01.417Z,9.60
2019-04-14T17:14:37.593Z,9.50
2019-04-14T17:17:28.815Z,9.30
2019-04-14T17:20:09.685Z,9.20
2019-04-14T17:22:48.829Z,9.20
2019-04-14T17:25:28.483Z,9.10
2019-04-14T17:28:07.651Z,9.10
2019-04-14T17:30:44.337Z,9.00
2019-04-14T17:33:24.987Z,8.80
2019-04-14T17:36:03.897Z,8.80
2019-04-14T17:38:40.319Z,8.80
2019-04-14T17:41:30.316Z,8.60
2019-04-14T17:44:05.331Z,8.50
2019-04-14T17:46:55.089Z,8.30
2019-04-14T17:49:45.694Z,8.20
2019-04-14T17:52:35.578Z,8.00
2019-04-14T17:55:12.249Z,7.90
2019-04-14T17:58:01.950Z,7.70
2019-04-14T18:00:49.484Z,7.70
2019-04-14T18:03:31.838Z,7.50
2019-04-14T18:06:08.746Z,7.40
2019-04-14T18:08:58.767Z,7.40
2019-04-14T18:11:39.639Z,7.30
2019-04-14T18:14:20.817Z,7.20
2019-04-14T18:17:04.659Z,7.10
2019-04-14T18:19:48.683Z,7.00
2019-04-14T18:22:19.786Z,7.00
2019-04-14T18:24:51.418Z,7.00
2019-04-14T18:30:27.711Z,7.00
2019-04-14T18:33:09.868Z,6.90
2019-04-14T18:35:53.294Z,6.90
2019-04-14T18:38:43.287Z,7.00
2019-04-14T18:41:22.676Z,7.10
2019-04-14T18:44:16.533Z,7.00
2019-04-14T18:47:00.913Z,6.90
2019-04-14T18:49:49.658Z,6.80
2019-04-14T18:52:26.680Z,6.70
2019-04-14T18:55:14.703Z,6.50
2019-04-14T18:58:01.522Z,6.40
2019-04-14T19:00:53.882Z,6.30
2019-04-14T19:03:26.581Z,6.30
2019-04-14T19:05:57.743Z,6.30
2019-04-14T19:08:31.438Z,6.30
2019-04-14T19:11:10.232Z,6.30
2019-04-14T19:13:48.126Z,6.20
2019-04-14T19:16:38.597Z,6.30
2019-04-14T19:19:05.433Z,6.20
2019-04-14T19:21:41.603Z,6.20
2019-04-14T19:24:17.132Z,6.20
2019-04-14T19:26:49.563Z,6.10
2019-04-14T19:29:22.120Z,6.20
2019-04-14T19:31:57.196Z,6.20
2019-04-14T19:34:34.126Z,6.20
2019-04-14T19:37:07.835Z,6.20
2019-04-14T19:39:42.469Z,6.10
2019-04-14T19:42:29.887Z,6.10
2019-04-14T19:45:03.606Z,6.10
2019-04-14T19:47:39.014Z,6.10
2019-04-14T19:50:11.163Z,6.00
2019-04-14T19:52:43.540Z,6.00
2019-04-14T19:55:20.546Z,5.90
2019-04-14T19:57:50.203Z,5.80
2019-04-14T20:00:23.587Z,5.70
2019-04-14T20:02:54.387Z,5.70
2019-04-14T20:05:27.469Z,5.60
2019-04-14T20:07:58.476Z,5.60
2019-04-14T20:10:28.906Z,5.70
2019-04-14T20:13:00.099Z,5.60
2019-04-14T20:15:39.155Z,5.50
2019-04-14T20:18:18.653Z,5.60
2019-04-14T20:21:08.365Z,5.50
2019-04-14T20:23:43.589Z,5.50
2019-04-14T20:26:34.230Z,5.60
2019-04-14T20:29:09.377Z,5.40
2019-04-14T20:31:43.190Z,5.40
2019-04-14T20:34:13.983Z,5.40
2019-04-14T20:36:44.779Z,5.30
2019-04-14T20:39:20.142Z,5.20
2019-04-14T20:41:50.739Z,5.20
2019-04-14T20:44:21.390Z,5.10
2019-04-14T20:46:51.922Z,5.00
2019-04-14T20:49:22.527Z,5.00
2019-04-14T20:51:53.808Z,4.90
2019-04-14T20:54:26.477Z,4.90
2019-04-14T20:56:56.915Z,4.80
2019-04-14T20:59:27.436Z,4.80
2019-04-14T21:02:07.832Z,4.80
2019-04-14T21:04:59.711Z,4.80
2019-04-14T21:07:49.191Z,4.80
2019-04-14T21:10:30.933Z,4.80
2019-04-14T21:13:20.572Z,4.80
2019-04-14T21:16:12.743Z,4.80
2019-04-14T21:18:51.282Z,4.70
2019-04-14T21:21:28.553Z,4.70
2019-04-14T21:24:18.055Z,4.60
2019-04-14T21:26:56.726Z,4.50
2019-04-14T21:29:38.438Z,4.50
2019-04-14T21:32:19.231Z,4.40
2019-04-14T21:34:59.373Z,4.40
2019-04-14T21:37:43.889Z,4.30
2019-04-14T21:40:22.221Z,4.20
2019-04-14T21:42:52.740Z,4.20
2019-04-14T21:45:26.098Z,4.10
2019-04-14T21:47:55.930Z,4.00
2019-04-14T21:50:26.381Z,4.00
2019-04-14T21:52:57.021Z,3.80
2019-04-14T21:55:27.477Z,3.80
2019-04-14T21:58:13.624Z,3.70
2019-04-14T22:01:36.566Z,3.70
2019-04-14T22:04:26.188Z,3.60
2019-04-14T22:06:58.766Z,3.50
2019-04-14T22:09:32.735Z,3.50
2019-04-14T22:12:04.811Z,3.40
2019-04-14T22:14:35.341Z,3.20
2019-04-14T22:17:05.946Z,3.20
2019-04-14T22:19:39.874Z,3.20
2019-04-14T22:22:10.301Z,3.10
2019-04-14T22:24:40.945Z,3.10
2019-04-14T22:27:11.523Z,3.10
2019-04-14T22:29:42.089Z,3.10
2019-04-14T22:32:12.580Z,3.00
2019-04-14T22:34:43.071Z,3.10
2019-04-14T22:37:26.324Z,3.00
2019-04-14T22:39:56.902Z,3.00
2019-04-14T22:42:27.343Z,3.00
2019-04-14T22:44:58.470Z,2.90
2019-04-14T22:47:28.936Z,2.80
2019-04-14T22:49:59.516Z,2.90
2019-04-14T22:52:29.959Z,2.80
2019-04-14T22:55:00.405Z,2.90
2019-04-14T22:57:30.925Z,2.80
2019-04-14T23:00:01.584Z,2.70
2019-04-14T23:02:53.355Z,2.80
2019-04-14T23:05:42.827Z,2.70
2019-04-14T23:08:33.308Z,2.70
2019-04-14T23:11:15.870Z,2.70
2019-04-14T23:14:05.591Z,2.50
2019-04-14T23:16:55.211Z,2.50
2019-04-14T23:19:32.758Z,2.40
2019-04-14T23:22:10.823Z,2.40
2019-04-14T23:24:44.172Z,2.40
2019-04-14T23:27:14.702Z,2.30
2019-04-14T23:29:45.205Z,2.30
2019-04-14T23:32:15.731Z,2.20
2019-04-14T23:34:46.370Z,2.20
2019-04-14T23:37:16.803Z,2.20
2019-04-14T23:39:47.489Z,2.10
2019-04-14T23:42:18.111Z,2.20
2019-04-14T23:44:48.529Z,2.20
2019-04-14T23:47:19.059Z,2.10
2019-04-14T23:49:52.272Z,2.00
2019-04-14T23:52:22.812Z,2.10
2019-04-14T23:54:53.219Z,2.00
2019-04-14T23:57:23.672Z,2.00
2019-04-14T23:59:54.048Z,2.10
